Time;durP1;ratioP1;P1;durP2;ratioP2;P2;SDS_P1;SDS_P2;PMS_P1;PMS_P2;Temp;Humidity;BMP_temperature;BMP_pressure;BME280_temperature;BME280_humidity;BME280_pressure;Samples;Min_cycle;Max_cycle;Signal;HPM_P1;HPM_P2
2022/07/23 00:00:41;;;;;;;2.90;2.50;;;18.50;99.90;;;;;;5092334;27;20219;-53
2022/07/23 00:03:08;;;;;;;4.03;2.63;;;18.50;99.90;;;;;;5082860;27;20676;-54
2022/07/23 00:05:35;;;;;;;4.83;3.27;;;18.40;99.90;;;;;;5095827;27;20198;-53
2022/07/23 00:08:04;;;;;;;7.23;2.80;;;18.40;99.90;;;;;;5093723;28;20292;-53
2022/07/23 00:10:35;;;;;;;5.30;3.10;;;18.40;99.90;;;;;;5091890;27;20287;-52
2022/07/23 00:13:02;;;;;;;5.40;2.70;;;18.40;99.90;;;;;;5064728;27;20555;-54
2022/07/23 00:15:29;;;;;;;3.67;2.90;;;18.50;99.90;;;;;;5094914;27;20206;-53
2022/07/23 00:17:56;;;;;;;4.10;2.97;;;18.40;99.90;;;;;;5076257;27;20215;-54
2022/07/23 00:20:26;;;;;;;5.17;3.30;;;18.30;99.90;;;;;;5092707;27;20613;-53
2022/07/23 00:22:54;;;;;;;3.33;2.90;;;18.20;99.90;;;;;;5097052;28;20213;-53
2022/07/23 00:25:23;;;;;;;4.00;2.97;;;18.10;99.90;;;;;;5097262;27;20313;-53
2022/07/23 00:27:56;;;;;;;4.43;3.10;;;18.10;99.90;;;;;;5094796;27;20251;-53
2022/07/23 00:30:23;;;;;;;3.93;3.37;;;18.10;99.90;;;;;;5077477;28;20275;-54
2022/07/23 00:32:56;;;;;;;7.37;2.90;;;18.10;99.90;;;;;;5077608;28;20255;-53
2022/07/23 00:35:25;;;;;;;6.40;3.07;;;18.00;99.90;;;;;;5077321;28;20190;-53
2022/07/23 00:37:53;;;;;;;3.03;2.73;;;18.10;99.90;;;;;;5080860;28;20421;-53
2022/07/23 00:40:20;;;;;;;3.37;2.83;;;18.10;99.90;;;;;;5075160;27;20662;-53
2022/07/23 00:42:47;;;;;;;3.80;2.93;;;18.10;99.90;;;;;;5093548;27;20649;-53
2022/07/23 00:45:14;;;;;;;8.53;3.03;;;18.10;99.90;;;;;;5061537;28;20842;-53
2022/07/23 00:47:41;;;;;;;3.77;3.07;;;18.10;99.90;;;;;;5099538;28;20224;-53
2022/07/23 00:50:09;;;;;;;6.07;3.37;;;18.10;99.90;;;;;;5075158;27;20255;-52
2022/07/23 00:52:37;;;;;;;4.67;3.23;;;18.10;99.90;;;;;;5094291;27;20661;-53
2022/07/23 00:55:06;;;;;;;3.27;2.90;;;18.00;99.90;;;;;;5094900;27;20567;-52
2022/07/23 00:57:34;;;;;;;9.73;3.20;;;18.00;99.90;;;;;;5091831;28;20368;-52
2022/07/23 01:00:01;;;;;;;5.80;3.10;;;17.90;99.90;;;;;;5093336;28;20630;-53
2022/07/23 01:02:28;;;;;;;6.53;2.83;;;17.90;99.90;;;;;;5093452;27;20592;-54
2022/07/23 01:04:55;;;;;;;4.90;3.53;;;17.90;99.90;;;;;;5097469;27;20242;-53
2022/07/23 01:07:23;;;;;;;3.13;2.83;;;17.80;99.90;;;;;;5094727;27;20285;-54
2022/07/23 01:09:51;;;;;;;4.80;3.17;;;18.00;99.90;;;;;;5073351;28;20231;-53
2022/07/23 01:12:18;;;;;;;4.70;3.00;;;18.00;99.90;;;;;;5072259;28;20287;-53
2022/07/23 01:14:49;;;;;;;3.10;2.70;;;17.90;99.90;;;;;;5096751;28;20298;-53
2022/07/23 01:17:16;;;;;;;3.37;2.90;;;17.90;99.90;;;;;;5094866;28;20287;-53
2022/07/23 01:19:44;;;;;;;4.27;3.03;;;17.90;99.90;;;;;;5094670;28;20665;-53
2022/07/23 01:22:11;;;;;;;3.73;3.10;;;17.90;99.90;;;;;;5094572;27;20207;-53
2022/07/23 01:24:38;;;;;;;5.10;3.17;;;17.80;99.90;;;;;;5094817;28;20198;-53
2022/07/23 01:27:05;;;;;;;5.00;3.30;;;17.60;99.90;;;;;;5076001;28;20194;-53
2022/07/23 01:29:32;;;;;;;5.00;3.10;;;17.60;99.90;;;;;;5060146;28;20265;-53
2022/07/23 01:31:59;;;;;;;6.17;3.60;;;17.50;99.90;;;;;;5097202;28;20202;-53
2022/07/23 01:34:26;;;;;;;4.57;3.20;;;17.50;99.90;;;;;;5082802;28;20253;-52
2022/07/23 01:36:53;;;;;;;5.43;3.10;;;17.50;99.90;;;;;;5079758;28;20227;-53
2022/07/23 01:39:19;;;;;;;3.43;3.07;;;17.50;99.90;;;;;;5098503;28;20342;-54
2022/07/23 01:41:46;;;;;;;6.17;3.07;;;17.40;99.90;;;;;;5082610;28;20240;-54
2022/07/23 01:44:17;;;;;;;5.73;3.37;;;17.50;99.90;;;;;;5100285;28;20217;-53
2022/07/23 01:46:44;;;;;;;7.30;3.20;;;17.60;99.90;;;;;;5098468;28;22153;-53
2022/07/23 01:49:11;;;;;;;3.90;3.37;;;17.70;99.90;;;;;;5065783;28;20314;-54
2022/07/23 01:51:59;;;;;;;3.57;3.00;;;17.70;99.90;;;;;;5100597;28;20211;-53
2022/07/23 01:54:28;;;;;;;4.17;3.00;;;17.60;99.90;;;;;;5097118;28;20764;-53
2022/07/23 01:56:56;;;;;;;3.63;3.27;;;17.60;99.90;;;;;;5096684;28;20638;-54
2022/07/23 01:59:23;;;;;;;5.60;3.50;;;17.60;99.90;;;;;;5093504;28;20261;-53
2022/07/23 02:01:51;;;;;;;6.70;3.57;;;17.60;99.90;;;;;;5075572;28;20207;-53
2022/07/23 02:04:19;;;;;;;4.67;3.27;;;17.60;99.90;;;;;;5094298;28;20282;-52
2022/07/23 02:06:47;;;;;;;4.67;3.30;;;17.60;99.90;;;;;;5097004;28;20318;-53
2022/07/23 02:09:14;;;;;;;5.97;3.50;;;17.50;99.90;;;;;;5094642;28;20305;-54
2022/07/23 02:11:41;;;;;;;5.80;3.60;;;17.40;99.90;;;;;;5094179;28;20301;-53
2022/07/23 02:14:08;;;;;;;4.13;3.53;;;17.40;99.90;;;;;;5088822;28;20199;-53
2022/07/23 02:16:35;;;;;;;4.30;3.40;;;17.40;99.90;;;;;;5076065;28;20209;-52
2022/07/23 02:19:03;;;;;;;4.87;3.50;;;17.40;99.90;;;;;;5095791;28;20661;-52
2022/07/23 02:21:30;;;;;;;6.33;3.63;;;17.40;99.90;;;;;;5075889;28;20213;-53
2022/07/23 02:23:58;;;;;;;6.03;3.87;;;17.40;99.90;;;;;;5078792;28;20225;-53
2022/07/23 02:26:24;;;;;;;6.17;3.87;;;17.40;99.90;;;;;;5079951;27;20614;-53
2022/07/23 02:28:52;;;;;;;5.40;3.80;;;17.30;99.90;;;;;;5099806;27;20246;-53
2022/07/23 02:31:20;;;;;;;6.10;4.67;;;17.30;99.90;;;;;;5077703;27;20205;-53
2022/07/23 02:33:47;;;;;;;8.03;4.00;;;17.30;99.90;;;;;;5082837;27;20205;-54
2022/07/23 02:36:14;;;;;;;8.73;4.33;;;17.30;99.90;;;;;;5077001;27;20207;-54
2022/07/23 02:38:41;;;;;;;7.57;3.90;;;17.40;99.90;;;;;;5100829;27;20199;-53
2022/07/23 02:41:08;;;;;;;4.70;4.00;;;17.20;99.90;;;;;;5092622;27;20203;-53
2022/07/23 02:43:35;;;;;;;5.70;3.97;;;17.20;99.90;;;;;;5079385;28;20347;-53
2022/07/23 02:46:02;;;;;;;5.83;4.27;;;17.20;99.90;;;;;;5095872;27;20206;-53
2022/07/23 02:48:29;;;;;;;5.40;4.03;;;17.10;99.90;;;;;;5066104;28;20247;-53
2022/07/23 02:50:56;;;;;;;5.87;4.23;;;17.00;99.90;;;;;;5095990;27;20658;-52
2022/07/23 02:53:23;;;;;;;5.43;3.67;;;17.00;99.90;;;;;;5099431;28;20232;-52
2022/07/23 02:55:50;;;;;;;5.83;4.37;;;16.90;99.90;;;;;;5099570;27;20650;-54
2022/07/23 02:58:18;;;;;;;7.23;4.43;;;16.90;99.90;;;;;;5080378;28;20747;-54
2022/07/23 03:00:45;;;;;;;4.63;3.83;;;17.10;99.90;;;;;;5076375;27;20721;-53
2022/07/23 03:03:12;;;;;;;5.10;4.03;;;17.10;99.90;;;;;;5099935;27;20773;-53
2022/07/23 03:05:38;;;;;;;5.17;4.20;;;17.00;99.90;;;;;;5082168;28;20292;-55
2022/07/23 03:08:05;;;;;;;5.67;4.17;;;16.90;99.90;;;;;;5097708;27;20226;-54
2022/07/23 03:10:32;;;;;;;4.87;4.07;;;16.90;99.90;;;;;;5074027;27;20418;-53
2022/07/23 03:12:59;;;;;;;5.30;4.20;;;16.80;99.90;;;;;;5083846;28;20624;-52
2022/07/23 03:15:26;;;;;;;5.63;3.80;;;16.80;99.90;;;;;;5080674;28;20633;-53
2022/07/23 03:17:53;;;;;;;4.57;3.97;;;17.00;99.90;;;;;;5096593;27;20333;-54
2022/07/23 03:20:20;;;;;;;7.67;4.77;;;17.10;99.90;;;;;;5096444;27;20273;-53
2022/07/23 03:22:47;;;;;;;5.10;3.97;;;17.10;99.90;;;;;;5079783;27;20210;-53
2022/07/23 03:25:13;;;;;;;7.00;4.53;;;17.10;99.90;;;;;;5078152;27;20293;-53
2022/07/23 03:27:40;;;;;;;5.00;4.23;;;17.00;99.90;;;;;;5098502;27;20206;-52
2022/07/23 03:30:08;;;;;;;6.97;4.30;;;16.90;99.90;;;;;;5100495;27;20274;-52
2022/07/23 03:32:34;;;;;;;6.03;4.40;;;16.90;99.90;;;;;;5098743;28;20679;-53
2022/07/23 03:35:01;;;;;;;4.40;3.73;;;17.00;99.90;;;;;;5082480;28;20661;-53
2022/07/23 03:37:29;;;;;;;5.23;4.50;;;17.10;99.90;;;;;;5099495;27;20233;-55
2022/07/23 03:39:55;;;;;;;4.20;3.70;;;17.00;99.90;;;;;;5100417;27;20599;-53
2022/07/23 03:42:22;;;;;;;5.77;3.97;;;17.00;99.90;;;;;;5099066;27;20727;-54
2022/07/23 03:44:49;;;;;;;5.10;3.70;;;17.00;99.90;;;;;;5102162;27;20605;-53
2022/07/23 03:47:17;;;;;;;8.50;3.97;;;17.00;99.90;;;;;;5099293;27;20293;-53
2022/07/23 03:49:44;;;;;;;5.97;4.37;;;17.00;99.90;;;;;;5101548;27;20255;-53
2022/07/23 03:52:10;;;;;;;5.83;3.80;;;17.00;99.90;;;;;;5081788;27;20229;-53
2022/07/23 03:54:37;;;;;;;7.00;4.23;;;16.80;99.90;;;;;;5066474;28;20936;-52
2022/07/23 03:57:04;;;;;;;8.07;4.20;;;16.70;99.90;;;;;;5099210;27;20268;-53
2022/07/23 03:59:32;;;;;;;7.27;4.17;;;16.70;99.90;;;;;;5098173;28;20569;-53
2022/07/23 04:01:59;;;;;;;5.87;4.13;;;16.80;99.90;;;;;;5080408;28;20210;-53
2022/07/23 04:04:26;;;;;;;6.10;3.90;;;16.80;99.90;;;;;;5098537;27;20202;-53
2022/07/23 04:06:53;;;;;;;6.27;4.17;;;16.90;99.90;;;;;;5097923;27;20677;-54
2022/07/23 04:09:19;;;;;;;4.57;3.90;;;16.90;99.90;;;;;;5078030;28;20295;-53
2022/07/23 04:11:46;;;;;;;4.47;3.97;;;16.90;99.90;;;;;;5093348;28;20286;-53
2022/07/23 04:14:13;;;;;;;5.37;4.10;;;16.80;99.90;;;;;;5093323;27;20239;-54
2022/07/23 04:16:40;;;;;;;5.30;3.90;;;16.90;99.90;;;;;;5096225;27;20283;-54
2022/07/23 04:19:07;;;;;;;4.73;4.23;;;16.90;99.90;;;;;;5093618;27;20234;-53
2022/07/23 04:21:34;;;;;;;8.43;4.03;;;16.80;99.90;;;;;;5092497;27;20249;-51
2022/07/23 04:24:01;;;;;;;6.93;4.27;;;16.80;99.90;;;;;;5100652;27;20305;-53
2022/07/23 04:26:27;;;;;;;7.23;4.03;;;16.90;99.90;;;;;;5092444;28;20199;-53
2022/07/23 04:28:54;;;;;;;5.57;4.47;;;16.90;99.90;;;;;;5079937;27;20750;-54
2022/07/23 04:31:21;;;;;;;5.50;4.10;;;16.80;99.90;;;;;;5095802;27;20299;-53
2022/07/23 04:33:48;;;;;;;6.07;4.37;;;16.80;99.90;;;;;;5094653;28;20207;-53
2022/07/23 04:36:15;;;;;;;6.97;4.40;;;16.90;99.90;;;;;;5077739;28;20256;-53
2022/07/23 04:38:42;;;;;;;6.20;4.50;;;16.90;99.90;;;;;;5095109;28;20203;-53
2022/07/23 04:41:09;;;;;;;7.10;3.83;;;16.90;99.90;;;;;;5089986;27;20712;-54
2022/07/23 04:43:36;;;;;;;5.77;4.70;;;17.00;99.90;;;;;;5095607;28;20238;-53
2022/07/23 04:46:02;;;;;;;4.80;3.47;;;17.00;99.90;;;;;;5095290;27;20936;-53
2022/07/23 04:48:29;;;;;;;4.17;3.73;;;17.00;99.90;;;;;;5097799;27;20202;-52
2022/07/23 04:50:56;;;;;;;5.80;4.13;;;16.90;99.90;;;;;;5093363;27;20252;-54
2022/07/23 04:53:24;;;;;;;6.00;4.30;;;16.90;99.90;;;;;;5076074;28;20202;-54
2022/07/23 04:55:51;;;;;;;5.10;3.90;;;16.90;99.90;;;;;;5094914;27;20317;-53
2022/07/23 04:58:18;;;;;;;8.13;4.20;;;17.00;99.90;;;;;;5093340;28;20257;-52
2022/07/23 05:00:45;;;;;;;5.80;4.00;;;17.00;99.90;;;;;;5092979;28;20228;-53
2022/07/23 05:03:11;;;;;;;5.73;4.23;;;16.90;99.90;;;;;;5095942;28;20253;-53
2022/07/23 05:05:38;;;;;;;5.07;4.53;;;16.80;99.90;;;;;;5096934;27;20767;-53
2022/07/23 05:08:05;;;;;;;4.73;4.03;;;16.90;99.90;;;;;;5094970;28;20297;-52
2022/07/23 05:10:34;;;;;;;6.67;4.40;;;16.90;99.90;;;;;;5097102;27;20211;-52
2022/07/23 05:13:00;;;;;;;6.77;4.43;;;17.00;99.90;;;;;;5099181;28;20285;-53
2022/07/23 05:15:27;;;;;;;6.47;4.07;;;16.90;99.90;;;;;;5098019;28;20209;-53
2022/07/23 05:17:54;;;;;;;5.33;4.50;;;16.90;99.90;;;;;;5095804;28;20199;-53
2022/07/23 05:20:21;;;;;;;5.40;4.50;;;17.00;99.90;;;;;;5077946;28;20604;-53
2022/07/23 05:22:48;;;;;;;6.33;4.17;;;17.00;99.90;;;;;;5093966;28;20200;-53
2022/07/23 05:25:15;;;;;;;5.10;4.17;;;17.10;99.90;;;;;;5062520;28;20276;-53
2022/07/23 05:27:42;;;;;;;5.67;4.27;;;17.10;99.90;;;;;;5100688;28;20660;-53
2022/07/23 05:30:09;;;;;;;6.83;4.27;;;17.00;99.90;;;;;;4731894;28;9999896;-52
2022/07/23 05:32:36;;;;;;;5.30;4.43;;;17.10;99.90;;;;;;5098724;28;20228;-53
2022/07/23 05:35:05;;;;;;;8.80;5.27;;;17.30;99.90;;;;;;5077463;28;20200;-53
2022/07/23 05:37:32;;;;;;;7.17;4.87;;;17.20;99.90;;;;;;5097298;28;20347;-54
2022/07/23 05:40:07;;;;;;;5.07;4.57;;;17.30;99.90;;;;;;5093031;28;20219;-53
2022/07/23 05:42:35;;;;;;;6.17;4.70;;;17.20;99.90;;;;;;5088562;28;20606;-53
2022/07/23 05:45:03;;;;;;;6.73;4.40;;;17.40;99.90;;;;;;5090348;28;20333;-53
2022/07/23 05:47:43;;;;;;;5.50;4.57;;;17.60;99.90;;;;;;5093313;28;20283;-53
2022/07/23 05:50:11;;;;;;;5.57;5.00;;;17.50;99.90;;;;;;5060471;28;20214;-54
2022/07/23 05:52:39;;;;;;;5.77;4.20;;;17.60;99.90;;;;;;5098373;28;20201;-53
2022/07/23 05:55:07;;;;;;;6.40;4.50;;;17.80;99.90;;;;;;5100572;28;20318;-54
2022/07/23 05:57:34;;;;;;;5.27;4.57;;;17.80;99.90;;;;;;5100486;28;20743;-53
2022/07/23 06:00:04;;;;;;;6.57;4.40;;;17.90;99.90;;;;;;5099377;27;20288;-53
2022/07/23 06:02:30;;;;;;;4.87;4.27;;;17.90;99.90;;;;;;5071980;28;20243;-53
2022/07/23 06:04:57;;;;;;;5.63;4.20;;;17.80;99.90;;;;;;5097946;27;20204;-53
2022/07/23 06:07:24;;;;;;;5.43;3.83;;;17.90;99.90;;;;;;5072879;28;20608;-53
2022/07/23 06:09:51;;;;;;;7.20;4.27;;;18.00;99.90;;;;;;5089852;27;20236;-53
2022/07/23 06:12:18;;;;;;;6.33;4.17;;;18.10;99.90;;;;;;5107357;28;20226;-53
2022/07/23 06:14:45;;;;;;;7.37;4.13;;;18.20;99.90;;;;;;5105707;27;20234;-53
2022/07/23 06:17:12;;;;;;;7.47;4.17;;;18.10;99.90;;;;;;5087565;28;20231;-53
2022/07/23 06:19:39;;;;;;;4.47;3.80;;;18.20;99.90;;;;;;5106087;28;20212;-53
2022/07/23 06:22:05;;;;;;;4.87;3.60;;;18.20;99.90;;;;;;5089354;27;20258;-53
2022/07/23 06:24:32;;;;;;;3.73;3.30;;;18.00;99.90;;;;;;5105233;27;20621;-54
2022/07/23 06:26:59;;;;;;;6.33;3.33;;;18.00;99.90;;;;;;5107091;27;20235;-53
2022/07/23 06:29:26;;;;;;;4.00;3.60;;;18.10;99.90;;;;;;5107552;28;20246;-53
2022/07/23 06:31:53;;;;;;;4.67;4.07;;;18.10;99.90;;;;;;5106094;28;20294;-54
2022/07/23 06:34:20;;;;;;;6.33;4.30;;;18.10;99.90;;;;;;5092192;28;20205;-53
2022/07/23 06:36:47;;;;;;;5.30;3.57;;;18.20;99.90;;;;;;5092301;28;20212;-52
2022/07/23 06:39:14;;;;;;;5.53;3.60;;;18.30;99.90;;;;;;5108000;27;20287;-52
2022/07/23 06:41:41;;;;;;;4.03;3.30;;;18.30;99.90;;;;;;5091802;28;20254;-54
2022/07/23 06:44:11;;;;;;;4.77;3.80;;;18.50;99.90;;;;;;5107956;28;20203;-53
2022/07/23 06:46:38;;;;;;;4.57;2.73;;;18.70;99.90;;;;;;5104901;27;20457;-53
2022/07/23 06:49:05;;;;;;;4.27;3.10;;;18.70;99.90;;;;;;5106334;27;20205;-54
2022/07/23 06:51:33;;;;;;;3.80;3.00;;;18.70;99.90;;;;;;5105486;27;20207;-51
2022/07/23 06:54:00;;;;;;;6.50;3.87;;;19.00;99.90;;;;;;5087980;27;20680;-54
2022/07/23 06:56:27;;;;;;;4.13;2.83;;;19.10;99.90;;;;;;5102916;27;20228;-54
2022/07/23 06:58:54;;;;;;;3.90;2.47;;;19.40;99.90;;;;;;5104303;27;20191;-54
2022/07/23 07:01:21;;;;;;;3.43;2.17;;;19.50;99.90;;;;;;5102496;27;20286;-53
2022/07/23 07:03:48;;;;;;;5.53;2.77;;;19.60;99.90;;;;;;5073920;28;20657;-52
2022/07/23 07:06:15;;;;;;;4.27;2.63;;;19.80;99.90;;;;;;5102556;28;20284;-53
2022/07/23 07:08:43;;;;;;;5.30;2.57;;;20.00;99.90;;;;;;5086990;28;20752;-52
2022/07/23 07:11:10;;;;;;;3.00;2.70;;;20.00;99.90;;;;;;5103520;28;20206;-53
2022/07/23 07:13:38;;;;;;;7.20;2.93;;;20.10;99.90;;;;;;5104566;27;20714;-54
2022/07/23 07:16:05;;;;;;;6.53;3.00;;;20.30;99.90;;;;;;5099520;27;20258;-53
2022/07/23 07:18:32;;;;;;;5.60;3.43;;;20.60;99.90;;;;;;5083138;28;20284;-52
2022/07/23 07:20:58;;;;;;;5.87;3.07;;;20.50;99.90;;;;;;5103699;27;20565;-53
2022/07/23 07:23:25;;;;;;;5.07;3.50;;;20.80;99.90;;;;;;5102693;28;20209;-53
2022/07/23 07:25:52;;;;;;;4.47;3.00;;;20.90;99.90;;;;;;5084301;28;20201;-55
2022/07/23 07:28:19;;;;;;;3.00;2.70;;;21.10;99.90;;;;;;5083499;28;20284;-55
2022/07/23 07:30:46;;;;;;;3.57;2.63;;;21.00;99.90;;;;;;5101543;28;20667;-54
2022/07/23 07:33:13;;;;;;;2.43;2.00;;;20.40;99.90;;;;;;5108527;28;20205;-55
2022/07/23 07:35:40;;;;;;;3.27;2.23;;;20.80;99.90;;;;;;5073307;28;20244;-54
2022/07/23 07:38:07;;;;;;;4.03;2.70;;;21.00;99.90;;;;;;5107244;28;20266;-54
2022/07/23 07:40:34;;;;;;;4.03;2.60;;;20.90;99.90;;;;;;5104623;27;20824;-55
2022/07/23 07:43:03;;;;;;;3.17;2.40;;;20.60;99.90;;;;;;5087745;28;20567;-55
2022/07/23 07:45:30;;;;;;;3.60;2.30;;;20.40;99.90;;;;;;5103110;27;20198;-54
2022/07/23 07:47:57;;;;;;;2.43;1.93;;;21.00;99.90;;;;;;5101033;27;20719;-54
2022/07/23 07:50:24;;;;;;;4.27;2.20;;;21.30;99.90;;;;;;5105826;27;20585;-54
2022/07/23 07:52:51;;;;;;;4.67;2.13;;;20.90;99.90;;;;;;5089836;28;20205;-55
2022/07/23 07:55:18;;;;;;;4.60;2.50;;;21.10;99.90;;;;;;5089387;28;20225;-54
2022/07/23 07:57:45;;;;;;;4.60;2.70;;;21.50;99.90;;;;;;5108225;28;20282;-53
2022/07/23 08:00:16;;;;;;;3.83;2.40;;;21.50;99.90;;;;;;5086630;28;20202;-54
2022/07/23 08:02:44;;;;;;;3.97;2.30;;;21.70;99.90;;;;;;5107794;27;20288;-55
2022/07/23 08:05:12;;;;;;;4.20;2.40;;;21.70;99.90;;;;;;5100238;27;20266;-54
2022/07/23 08:07:39;;;;;;;3.80;2.60;;;22.00;99.90;;;;;;5105768;28;20267;-53
2022/07/23 08:10:09;;;;;;;3.77;2.60;;;21.50;99.90;;;;;;5088348;28;20263;-54
2022/07/23 08:12:45;;;;;;;4.67;2.87;;;21.80;99.90;;;;;;5106565;27;20225;-54
2022/07/23 08:15:15;;;;;;;5.13;2.67;;;21.80;99.90;;;;;;5106376;28;20231;-53
2022/07/23 08:17:43;;;;;;;4.67;2.87;;;22.10;99.90;;;;;;5105910;28;20290;-56
2022/07/23 08:20:11;;;;;;;3.20;2.33;;;22.40;99.90;;;;;;5089972;28;20217;-55
2022/07/23 08:22:48;;;;;;;3.47;2.87;;;22.60;99.90;;;;;;5073177;28;20263;-54
2022/07/23 08:25:17;;;;;;;3.63;2.73;;;22.90;99.90;;;;;;5089600;27;20231;-54
2022/07/23 08:27:44;;;;;;;3.87;2.53;;;23.00;99.90;;;;;;5106719;28;20288;-53
2022/07/23 08:30:11;;;;;;;4.50;3.10;;;23.10;99.90;;;;;;5076008;28;21314;-53
2022/07/23 08:32:53;;;;;;;3.07;2.73;;;22.90;99.90;;;;;;5066096;28;20688;-55
2022/07/23 08:35:27;;;;;;;2.77;2.30;;;23.20;99.90;;;;;;5096085;27;20198;-54
2022/07/23 08:37:55;;;;;;;5.83;2.77;;;23.20;99.90;;;;;;5098203;28;20221;-54
2022/07/23 08:40:22;;;;;;;3.87;2.60;;;22.40;99.90;;;;;;5096738;27;20643;-54
2022/07/23 08:42:50;;;;;;;4.20;2.90;;;22.10;99.90;;;;;;5077657;28;20454;-56
2022/07/23 08:45:20;;;;;;;3.67;2.67;;;22.00;99.90;;;;;;5099509;27;20711;-55
2022/07/23 08:47:53;;;;;;;3.80;2.07;;;22.90;99.90;;;;;;5101440;27;20306;-55
2022/07/23 08:50:21;;;;;;;3.97;2.37;;;24.00;99.90;;;;;;5072387;27;20280;-55
2022/07/23 08:52:50;;;;;;;1.67;1.53;;;24.70;93.50;;;;;;5088291;28;20307;-55
2022/07/23 08:55:18;;;;;;;2.97;1.67;;;25.40;94.30;;;;;;5100557;27;20315;-55
2022/07/23 08:57:48;;;;;;;2.97;1.93;;;26.90;76.70;;;;;;5085311;28;20721;-56
2022/07/23 09:00:16;;;;;;;3.30;1.80;;;26.60;49.80;;;;;;5102335;28;20238;-55
2022/07/23 09:02:45;;;;;;;3.00;1.80;;;27.00;37.70;;;;;;5102688;28;20271;-55
2022/07/23 09:05:14;;;;;;;3.63;2.37;;;27.70;71.80;;;;;;5101730;28;20642;-56
2022/07/23 09:08:07;;;;;;;2.37;2.03;;;26.00;26.40;;;;;;5084878;28;20872;-54
2022/07/23 09:10:58;;;;;;;2.83;1.97;;;26.20;40.90;;;;;;5101596;28;20587;-55
2022/07/23 09:13:32;;;;;;;3.13;2.20;;;26.20;41.10;;;;;;5102476;28;20793;-55
2022/07/23 09:16:08;;;;;;;2.97;2.10;;;25.80;59.30;;;;;;5083884;28;20273;-57
2022/07/23 09:18:39;;;;;;;3.87;3.00;;;26.40;35.10;;;;;;5107167;27;20531;-55
2022/07/23 09:21:18;;;;;;;4.93;2.40;;;25.40;45.70;;;;;;5105106;28;20203;-55
2022/07/23 09:23:49;;;;;;;3.37;2.50;;;25.80;39.80;;;;;;5105033;28;20288;-55
2022/07/23 09:26:23;;;;;;;4.40;2.20;;;26.60;34.30;;;;;;5080614;28;20228;-57
2022/07/23 09:28:56;;;;;;;3.97;2.17;;;26.60;22.30;;;;;;5104751;28;20251;-55
2022/07/23 09:31:24;;;;;;;2.90;2.47;;;26.40;26.40;;;;;;5083393;28;20214;-60
2022/07/23 09:34:02;;;;;;;3.80;2.07;;;25.90;19.00;;;;;;5106062;28;20198;-55
2022/07/23 09:36:30;;;;;;;5.07;1.97;;;26.40;23.30;;;;;;5106260;28;20220;-55
2022/07/23 09:38:57;;;;;;;3.93;2.40;;;27.20;41.20;;;;;;5087974;28;20216;-55
2022/07/23 09:41:24;;;;;;;3.73;2.07;;;27.00;19.80;;;;;;5085671;28;20202;-55
2022/07/23 09:43:56;;;;;;;3.33;1.95;;;27.40;23.20;;;;;;5088336;28;20288;-55
2022/07/23 09:46:27;;;;;;;3.25;2.60;;;28.00;31.60;;;;;;5103749;28;20305;-55
2022/07/23 09:48:58;;;;;;;2.97;2.28;;;27.10;14.60;;;;;;5088445;28;20254;-56
2022/07/23 09:54:02;;;;;;;1.80;1.70;;;27.20;17.70;;;;;;5101919;28;20245;-55
2022/07/23 09:56:30;;;;;;;2.73;2.00;;;27.10;17.70;;;;;;5082071;28;20198;-54
2022/07/23 09:59:11;;;;;;;4.83;2.50;;;25.90;47.30;;;;;;5082937;28;20250;-56
2022/07/23 10:01:39;;;;;;;3.20;2.10;;;26.40;30.30;;;;;;5099574;28;20236;-57
2022/07/23 10:04:07;;;;;;;2.63;1.77;;;26.70;24.50;;;;;;5103870;28;20208;-55
2022/07/23 10:06:35;;;;;;;5.93;3.10;;;26.40;38.70;;;;;;5086406;28;20224;-55
2022/07/23 10:09:02;;;;;;;4.35;2.42;;;25.80;13.80;;;;;;5103015;28;20661;-56
2022/07/23 10:11:31;;;;;;;2.83;2.22;;;24.80;37.00;;;;;;5101732;28;20214;-55
2022/07/23 10:13:59;;;;;;;2.63;2.30;;;24.30;53.50;;;;;;5089001;28;20646;-55
2022/07/23 10:16:27;;;;;;;2.53;2.10;;;24.00;90.30;;;;;;5104348;28;20894;-56
2022/07/23 10:18:55;;;;;;;5.30;2.20;;;24.70;89.90;;;;;;5087105;28;20210;-57
2022/07/23 10:21:30;;;;;;;2.80;1.63;;;25.20;67.10;;;;;;5089380;28;20395;-57
2022/07/23 10:24:25;;;;;;;3.20;1.87;;;25.50;57.80;;;;;;5105058;28;20579;-56
2022/07/23 10:27:15;;;;;;;2.47;2.10;;;25.90;34.90;;;;;;5084825;28;20608;-55
2022/07/23 10:30:00;;;;;;;2.40;2.20;;;25.80;25.40;;;;;;5101785;28;20540;-55
2022/07/23 10:32:52;;;;;;;3.80;2.00;;;25.90;41.40;;;;;;5098851;28;20205;-55
2022/07/23 10:35:34;;;;;;;5.83;2.07;;;25.90;24.30;;;;;;5099737;28;20218;-55
2022/07/23 10:38:24;;;;;;;3.60;2.33;;;25.80;21.00;;;;;;5095758;28;20209;-56
2022/07/23 10:40:58;;;;;;;3.97;1.70;;;25.60;12.00;;;;;;5097472;28;22115;-55
2022/07/23 10:43:25;;;;;;;2.93;1.80;;;25.20;22.70;;;;;;5092444;28;20729;-54
2022/07/23 10:45:53;;;;;;;3.80;1.97;;;24.70;14.30;;;;;;5063753;27;20216;-55
2022/07/23 10:48:29;;;;;;;3.72;1.88;;;24.90;27.70;;;;;;5101035;27;20243;-56
2022/07/23 10:51:14;;;;;;;2.53;1.57;;;24.90;24.60;;;;;;5097671;27;20675;-57
2022/07/23 10:54:00;;;;;;;3.00;1.50;;;25.00;16.60;;;;;;5102149;27;20201;-56
2022/07/23 10:56:54;;;;;;;4.03;2.37;;;25.70;13.30;;;;;;5102719;27;20217;-56
2022/07/23 10:59:24;;;;;;;2.20;2.00;;;25.30;21.50;;;;;;5078276;27;20321;-57
2022/07/23 11:01:51;;;;;;;3.93;1.77;;;24.70;31.30;;;;;;5098096;27;20212;-55
2022/07/23 11:04:19;;;;;;;2.03;1.73;;;24.80;28.50;;;;;;5084243;28;20207;-58
2022/07/23 11:06:49;;;;;;;3.17;1.87;;;26.10;21.80;;;;;;5102491;28;20202;-56
2022/07/23 11:09:28;;;;;;;2.13;1.50;;;25.80;17.50;;;;;;5102985;27;20608;-56
2022/07/23 11:12:13;;;;;;;1.70;1.37;;;26.90;53.90;;;;;;5077370;27;20233;-55
2022/07/23 11:15:14;;;;;;;5.53;1.70;;;27.30;38.10;;;;;;5084245;28;20205;-56
2022/07/23 11:17:53;;;;;;;1.63;1.10;;;27.50;99.90;;;;;;5083265;28;20620;-56
2022/07/23 11:20:22;;;;;;;6.80;1.60;;;28.00;99.90;;;;;;5086672;28;21152;-55
2022/07/23 11:22:52;;;;;;;2.80;1.40;;;28.20;99.90;;;;;;5087466;28;20230;-55
2022/07/23 11:25:21;;;;;;;1.40;1.23;;;28.30;99.90;;;;;;5103604;27;20202;-55
2022/07/23 11:27:50;;;;;;;1.63;1.30;;;28.40;99.90;;;;;;5087344;28;20220;-56
2022/07/23 11:30:26;;;;;;;2.58;1.33;;;28.90;99.90;;;;;;5103687;27;20552;-57
2022/07/23 11:33:11;;;;;;;2.78;1.65;;;30.40;99.90;;;;;;5104292;27;20255;-58
2022/07/23 11:36:00;;;;;;;2.08;1.70;;;30.50;99.90;;;;;;5104581;27;20292;-56
2022/07/23 11:38:34;;;;;;;3.30;1.73;;;31.30;99.90;;;;;;5083910;27;20659;-57
2022/07/23 11:41:04;;;;;;;2.47;1.67;;;31.20;99.90;;;;;;5101963;27;20205;-57
2022/07/23 11:43:31;;;;;;;1.97;1.60;;;30.60;99.90;;;;;;5082037;28;20680;-56
2022/07/23 11:46:00;;;;;;;2.57;1.40;;;30.90;99.90;;;;;;5099124;27;20710;-55
2022/07/23 11:48:32;;;;;;;3.47;2.13;;;30.40;99.90;;;;;;5073001;28;20710;-57
2022/07/23 11:51:06;;;;;;;2.45;1.90;;;29.10;99.90;;;;;;5102111;27;20644;-56
2022/07/23 11:53:34;;;;;;;2.30;2.10;;;28.10;36.60;;;;;;5086894;28;20210;-56
2022/07/23 11:56:10;;;;;;;3.13;1.50;;;27.70;99.90;;;;;;5102657;27;20206;-55
2022/07/23 11:58:39;;;;;;;2.22;1.70;;;28.90;99.90;;;;;;5087076;28;20609;-58
2022/07/23 12:01:06;;;;;;;2.95;2.03;;;28.90;99.90;;;;;;5079798;28;20237;-57
2022/07/23 12:03:51;;;;;;;2.22;1.98;;;29.30;99.90;;;;;;5099497;27;20206;-56
2022/07/23 12:06:19;;;;;;;2.55;2.00;;;29.70;99.90;;;;;;5076535;28;20197;-54
2022/07/23 12:08:46;;;;;;;3.13;1.85;;;29.30;99.90;;;;;;5098706;27;20203;-58
2022/07/23 12:11:13;;;;;;;3.35;1.92;;;30.00;99.90;;;;;;5104692;27;20880;-56
2022/07/23 12:13:40;;;;;;;5.53;1.50;;;29.60;99.90;;;;;;5108243;28;20532;-58
2022/07/23 12:16:08;;;;;;;2.15;1.88;;;29.80;99.90;;;;;;5101733;27;20656;-56
2022/07/23 12:18:35;;;;;;;5.23;2.47;;;31.00;99.90;;;;;;5103370;27;20201;-57
2022/07/23 12:21:06;;;;;;;3.87;2.93;;;30.50;99.90;;;;;;5101340;27;20572;-55
2022/07/23 12:23:33;;;;;;;2.35;2.08;;;30.20;99.90;;;;;;5100464;27;20293;-55
2022/07/23 12:26:02;;;;;;;3.43;2.30;;;29.60;99.90;;;;;;5098970;27;20921;-56
2022/07/23 12:28:32;;;;;;;1.67;1.58;;;28.80;99.90;;;;;;5099953;27;20205;-57
2022/07/23 12:31:00;;;;;;;4.00;2.13;;;30.20;99.90;;;;;;5096587;27;20667;-55
2022/07/23 12:33:33;;;;;;;1.92;1.70;;;30.50;99.90;;;;;;5101813;27;20962;-56
2022/07/23 12:36:03;;;;;;;3.13;1.95;;;30.80;99.90;;;;;;5102536;27;20641;-55
2022/07/23 12:38:56;;;;;;;2.88;1.50;;;30.40;99.90;;;;;;5100428;27;20241;-55
2022/07/23 12:41:23;;;;;;;2.55;2.08;;;30.60;99.90;;;;;;5097662;27;20216;-59
2022/07/23 12:43:50;;;;;;;4.72;2.30;;;30.30;99.90;;;;;;5085286;28;20259;-55
2022/07/23 12:46:19;;;;;;;3.88;1.98;;;29.50;99.90;;;;;;5099754;27;20206;-57
2022/07/23 12:48:49;;;;;;;4.68;2.60;;;29.50;99.90;;;;;;5099090;27;20202;-56
2022/07/23 12:51:17;;;;;;;2.92;2.30;;;30.30;99.90;;;;;;5099245;27;20217;-56
2022/07/23 12:54:06;;;;;;;2.70;1.35;;;29.80;99.90;;;;;;5099504;28;20229;-55
2022/07/23 12:56:36;;;;;;;2.90;1.77;;;30.50;99.90;;;;;;5093088;27;21753;-56
2022/07/23 12:59:03;;;;;;;1.67;1.48;;;30.20;99.90;;;;;;5084602;28;20412;-56
2022/07/23 13:01:48;;;;;;;3.28;1.88;;;30.70;99.90;;;;;;5080159;28;20646;-56